createdAt,value
2023-05-06T00:00:15.172Z,25.67
2023-05-06T00:01:15.286Z,25.67
2023-05-06T00:02:15.205Z,25.67
2023-05-06T00:03:15.215Z,25.67
2023-05-06T00:04:15.183Z,25.66
2023-05-06T00:05:15.137Z,25.66
2023-05-06T00:06:15.170Z,25.66
2023-05-06T00:07:15.143Z,25.66
2023-05-06T00:08:15.112Z,25.66
2023-05-06T00:09:15.137Z,25.65
2023-05-06T00:10:15.114Z,25.65
2023-05-06T00:11:15.088Z,25.65
2023-05-06T00:12:15.094Z,25.65
2023-05-06T00:13:15.260Z,25.65
2023-05-06T00:14:15.061Z,25.65
2023-05-06T00:15:15.058Z,25.64
2023-05-06T00:16:15.115Z,25.64
2023-05-06T00:17:15.074Z,25.63
2023-05-06T00:18:15.084Z,25.63
2023-05-06T00:19:15.052Z,25.63
2023-05-06T00:20:15.039Z,25.63
2023-05-06T00:21:15.029Z,25.63
2023-05-06T00:22:15.007Z,25.62
2023-05-06T00:23:15.008Z,25.62
2023-05-06T00:24:14.986Z,25.63
2023-05-06T00:25:15.000Z,25.62
2023-05-06T00:26:14.992Z,25.61
2023-05-06T00:27:14.974Z,25.61
2023-05-06T00:28:14.973Z,25.60
2023-05-06T00:29:14.962Z,25.61
2023-05-06T00:30:14.973Z,25.61
2023-05-06T00:31:14.958Z,25.60
2023-05-06T00:32:14.972Z,25.60
2023-05-06T00:33:15.006Z,25.61
2023-05-06T00:34:14.967Z,25.60
2023-05-06T00:35:14.934Z,25.60
2023-05-06T00:36:14.897Z,25.59
2023-05-06T00:37:14.909Z,25.59
2023-05-06T00:38:14.891Z,25.59
2023-05-06T00:39:14.918Z,25.58
2023-05-06T00:40:15.718Z,25.58
2023-05-06T00:41:14.890Z,25.57
2023-05-06T00:42:14.957Z,25.57
2023-05-06T00:43:14.894Z,25.57
2023-05-06T00:44:14.854Z,25.58
2023-05-06T00:45:14.856Z,25.57
2023-05-06T00:46:14.893Z,25.57
2023-05-06T00:47:14.819Z,25.57
2023-05-06T00:48:14.884Z,25.57
2023-05-06T00:49:14.986Z,25.57
2023-05-06T00:50:14.808Z,25.56
2023-05-06T00:51:14.790Z,25.56
2023-05-06T00:52:14.820Z,25.56
2023-05-06T00:53:14.792Z,25.56
2023-05-06T00:54:14.824Z,25.55
2023-05-06T00:55:14.789Z,25.56
2023-05-06T00:56:14.791Z,25.55
2023-05-06T00:57:14.771Z,25.55
2023-05-06T00:58:14.746Z,25.55
2023-05-06T00:59:14.778Z,25.55
2023-05-06T01:00:14.747Z,25.54
2023-05-06T01:01:14.751Z,25.54
2023-05-06T01:02:14.840Z,25.54
2023-05-06T01:03:14.818Z,25.54
2023-05-06T01:04:14.751Z,25.54
2023-05-06T01:05:14.809Z,25.53
2023-05-06T01:06:14.707Z,25.53
2023-05-06T01:07:14.695Z,25.53
2023-05-06T01:08:14.726Z,25.52
2023-05-06T01:09:14.676Z,25.53
2023-05-06T01:10:14.683Z,25.52
2023-05-06T01:11:15.930Z,25.52
2023-05-06T01:12:14.702Z,25.52
2023-05-06T01:13:14.717Z,25.52
2023-05-06T01:14:14.661Z,25.52
2023-05-06T01:15:14.660Z,25.52
2023-05-06T01:16:14.623Z,25.51
2023-05-06T01:17:14.700Z,25.50
2023-05-06T01:18:14.630Z,25.50
2023-05-06T01:19:14.652Z,25.51
2023-05-06T01:20:14.597Z,25.51
2023-05-06T01:21:14.649Z,25.50
2023-05-06T01:22:14.639Z,25.50
2023-05-06T01:23:14.619Z,25.50
2023-05-06T01:24:14.627Z,25.49
2023-05-06T01:25:14.607Z,25.50
2023-05-06T01:26:14.588Z,25.49
2023-05-06T01:27:14.639Z,25.48
2023-05-06T01:28:14.583Z,25.49
2023-05-06T01:29:14.572Z,25.48
2023-05-06T01:30:14.548Z,25.48
2023-05-06T01:31:14.602Z,25.47
2023-05-06T01:32:14.529Z,25.47
2023-05-06T01:33:14.532Z,25.47
2023-05-06T01:34:14.517Z,25.47
2023-05-06T01:35:14.582Z,25.46
2023-05-06T01:36:14.498Z,25.46
2023-05-06T01:37:14.602Z,25.47
2023-05-06T01:38:14.495Z,25.46
2023-05-06T01:39:14.508Z,25.46
2023-05-06T01:40:14.510Z,25.46
2023-05-06T01:41:14.489Z,25.45
2023-05-06T01:42:14.443Z,25.45
2023-05-06T01:43:14.485Z,25.45
2023-05-06T01:44:14.465Z,25.45
2023-05-06T01:45:14.435Z,25.45
2023-05-06T01:46:14.478Z,25.44
2023-05-06T01:47:14.456Z,25.44
2023-05-06T01:48:14.436Z,25.44
2023-05-06T01:49:14.441Z,25.43
2023-05-06T01:50:14.448Z,25.44
2023-05-06T01:51:14.415Z,25.43
2023-05-06T01:52:14.416Z,25.44
2023-05-06T01:53:14.486Z,25.44
2023-05-06T01:54:14.406Z,25.44
2023-05-06T01:55:14.400Z,25.44
2023-05-06T01:56:14.390Z,25.43
2023-05-06T01:57:14.393Z,25.43
2023-05-06T01:58:14.364Z,25.43
2023-05-06T01:59:14.364Z,25.43
2023-05-06T02:00:14.360Z,25.43
2023-05-06T02:01:14.371Z,25.43
2023-05-06T02:02:14.314Z,25.42
2023-05-06T02:03:14.512Z,25.42
2023-05-06T02:04:14.296Z,25.42
2023-05-06T02:05:14.339Z,25.42
2023-05-06T02:06:14.303Z,25.42
2023-05-06T02:07:14.298Z,25.41
2023-05-06T02:08:14.297Z,25.41
2023-05-06T02:09:14.291Z,25.41
2023-05-06T02:10:14.278Z,25.40
2023-05-06T02:11:14.326Z,25.40
2023-05-06T02:12:14.287Z,25.40
2023-05-06T02:13:14.341Z,25.39
2023-05-06T02:14:14.261Z,25.39
2023-05-06T02:15:14.261Z,25.39
2023-05-06T02:16:14.274Z,25.39
2023-05-06T02:17:14.224Z,25.39
2023-05-06T02:18:14.240Z,25.38
2023-05-06T02:19:14.212Z,25.39
2023-05-06T02:20:14.191Z,25.38
2023-05-06T02:21:14.202Z,25.38
2023-05-06T02:22:14.294Z,25.37
2023-05-06T02:23:14.207Z,25.37
2023-05-06T02:24:14.228Z,25.37
2023-05-06T02:25:14.245Z,25.38
2023-05-06T02:26:14.152Z,25.37
2023-05-06T02:27:14.144Z,25.37
2023-05-06T02:28:14.166Z,25.35
2023-05-06T02:29:14.199Z,25.35
2023-05-06T02:30:14.135Z,25.35
2023-05-06T02:31:14.204Z,25.35
2023-05-06T02:32:14.126Z,25.35
2023-05-06T02:33:14.125Z,25.35
2023-05-06T02:34:14.101Z,25.34
2023-05-06T02:35:14.138Z,25.34
2023-05-06T02:36:14.074Z,25.34
2023-05-06T02:37:14.084Z,25.34
2023-05-06T02:38:14.095Z,25.34
2023-05-06T02:39:14.091Z,25.34
2023-05-06T02:40:14.083Z,25.34
2023-05-06T02:41:14.142Z,25.34
2023-05-06T02:42:14.155Z,25.33
2023-05-06T02:43:14.058Z,25.34
2023-05-06T02:44:14.036Z,25.33
2023-05-06T02:45:14.045Z,25.33
2023-05-06T02:46:14.071Z,25.33
2023-05-06T02:47:14.015Z,25.33
2023-05-06T02:48:14.030Z,25.33
2023-05-06T02:49:14.030Z,25.32
2023-05-06T02:50:13.991Z,25.32
2023-05-06T02:51:13.961Z,25.32
2023-05-06T02:52:13.978Z,25.31
2023-05-06T02:53:13.952Z,25.31
2023-05-06T02:54:13.968Z,25.31
2023-05-06T02:55:14.024Z,25.31
2023-05-06T02:56:13.972Z,25.31
2023-05-06T02:57:14.008Z,25.30
2023-05-06T02:58:13.936Z,25.30
2023-05-06T02:59:14.006Z,25.30
2023-05-06T03:00:13.924Z,25.30
2023-05-06T03:01:13.959Z,25.31
2023-05-06T03:02:13.918Z,25.31
2023-05-06T03:03:13.909Z,25.30
2023-05-06T03:04:13.967Z,25.30
2023-05-06T03:05:13.932Z,25.30
2023-05-06T03:06:13.987Z,25.30
2023-05-06T03:07:13.967Z,25.29
2023-05-06T03:08:13.948Z,25.29
2023-05-06T03:09:13.952Z,25.29
2023-05-06T03:10:13.968Z,25.29
2023-05-06T03:11:14.034Z,25.28
2023-05-06T03:12:13.996Z,25.29
2023-05-06T03:13:14.086Z,25.28
2023-05-06T03:14:13.990Z,25.28
2023-05-06T03:15:14.032Z,25.28
2023-05-06T03:16:14.071Z,25.28
2023-05-06T03:17:14.054Z,25.27
2023-05-06T03:18:14.067Z,25.28
2023-05-06T03:19:14.067Z,25.28
2023-05-06T03:20:14.054Z,25.27
2023-05-06T03:21:14.143Z,25.28
2023-05-06T03:22:14.123Z,25.27
2023-05-06T03:23:14.127Z,25.27
2023-05-06T03:24:14.181Z,25.26
2023-05-06T03:25:14.185Z,25.26
2023-05-06T03:26:14.161Z,25.26
2023-05-06T03:27:14.146Z,25.26
2023-05-06T03:28:14.188Z,25.26
2023-05-06T03:29:14.194Z,25.26
2023-05-06T03:30:14.204Z,25.26
2023-05-06T03:31:14.258Z,25.26
2023-05-06T03:32:14.234Z,25.26
2023-05-06T03:33:14.255Z,25.26
2023-05-06T03:34:14.280Z,25.26
2023-05-06T03:35:14.304Z,25.25
2023-05-06T03:36:14.290Z,25.26
2023-05-06T03:37:14.307Z,25.24
2023-05-06T03:38:14.303Z,25.25
2023-05-06T03:39:14.438Z,25.24
2023-05-06T03:40:14.339Z,25.23
2023-05-06T03:41:14.412Z,25.24
2023-05-06T03:42:14.403Z,25.23
2023-05-06T03:43:14.394Z,25.23
2023-05-06T03:44:14.463Z,25.23
2023-05-06T03:45:14.568Z,25.22
2023-05-06T03:46:14.485Z,25.22
2023-05-06T03:47:14.516Z,25.22
2023-05-06T03:48:14.483Z,25.21
2023-05-06T03:49:14.512Z,25.21
2023-05-06T03:50:14.489Z,25.21
2023-05-06T03:51:14.556Z,25.21
2023-05-06T03:52:14.533Z,25.22
2023-05-06T03:53:14.604Z,25.22
2023-05-06T03:54:14.573Z,25.21
2023-05-06T03:55:14.626Z,25.21
2023-05-06T03:56:14.608Z,25.21
2023-05-06T03:57:14.630Z,25.22
2023-05-06T03:58:14.669Z,25.22
2023-05-06T03:59:14.674Z,25.21
2023-05-06T04:00:14.683Z,25.21
2023-05-06T04:01:14.889Z,25.22
2023-05-06T04:02:14.790Z,25.21
2023-05-06T04:03:14.821Z,25.21
2023-05-06T04:04:14.849Z,25.20
2023-05-06T04:05:14.772Z,25.21
2023-05-06T04:06:14.831Z,25.21
2023-05-06T04:07:14.863Z,25.20
2023-05-06T04:08:14.820Z,25.20
2023-05-06T04:09:14.886Z,25.20
2023-05-06T04:10:14.896Z,25.20
2023-05-06T04:11:14.908Z,25.20
2023-05-06T04:12:14.927Z,25.19
2023-05-06T04:13:15.047Z,25.20
2023-05-06T04:14:14.960Z,25.20
2023-05-06T04:15:14.949Z,25.20
2023-05-06T04:16:15.002Z,25.20
2023-05-06T04:17:15.192Z,25.21
2023-05-06T04:18:15.051Z,25.20
2023-05-06T04:19:15.010Z,25.21
2023-05-06T04:20:15.016Z,25.20
2023-05-06T04:21:15.040Z,25.20
2023-05-06T04:22:15.057Z,25.20
2023-05-06T04:23:15.113Z,25.19
2023-05-06T04:24:15.130Z,25.18
2023-05-06T04:25:15.153Z,25.19
2023-05-06T04:26:15.146Z,25.18
2023-05-06T04:27:15.240Z,25.18
2023-05-06T04:28:15.223Z,25.18
2023-05-06T04:29:15.229Z,25.18
2023-05-06T04:30:15.302Z,25.18
2023-05-06T04:31:15.292Z,25.19
2023-05-06T04:32:15.292Z,25.19
2023-05-06T04:33:15.343Z,25.18
2023-05-06T04:34:15.363Z,25.18
2023-05-06T04:35:15.371Z,25.19
2023-05-06T04:36:15.352Z,25.19
2023-05-06T04:37:15.420Z,25.18
2023-05-06T04:38:15.389Z,25.18
2023-05-06T04:39:15.397Z,25.17
2023-05-06T04:40:15.432Z,25.17
2023-05-06T04:41:15.436Z,25.17
2023-05-06T04:42:15.452Z,25.17
2023-05-06T04:43:15.485Z,25.17
2023-05-06T04:44:15.488Z,25.17
2023-05-06T04:45:15.514Z,25.17
2023-05-06T04:46:15.596Z,25.17
2023-05-06T04:47:15.582Z,25.17
2023-05-06T04:48:15.590Z,25.17
2023-05-06T04:49:15.677Z,25.18
2023-05-06T04:50:15.632Z,25.18
2023-05-06T04:51:15.676Z,25.18
2023-05-06T04:52:15.642Z,25.18
2023-05-06T04:53:15.649Z,25.18
2023-05-06T04:54:15.669Z,25.17
2023-05-06T04:55:15.698Z,25.17
2023-05-06T04:56:15.710Z,25.17
2023-05-06T04:57:15.754Z,25.17
2023-05-06T04:58:15.762Z,25.17
2023-05-06T04:59:15.841Z,25.17
2023-05-06T05:00:15.819Z,25.17
2023-05-06T05:01:15.925Z,25.17
2023-05-06T05:02:15.873Z,25.17
2023-05-06T05:03:16.074Z,25.17
2023-05-06T05:04:15.907Z,25.16
2023-05-06T05:05:15.992Z,25.17
2023-05-06T05:06:15.925Z,25.17
2023-05-06T05:07:15.998Z,25.18
2023-05-06T05:08:15.965Z,25.17
2023-05-06T05:09:15.974Z,25.17
2023-05-06T05:10:16.016Z,25.17
2023-05-06T05:11:16.032Z,25.17
2023-05-06T05:12:16.036Z,25.17
2023-05-06T05:13:16.188Z,25.17
2023-05-06T05:14:16.097Z,25.17
2023-05-06T05:15:16.104Z,25.18
2023-05-06T05:16:16.141Z,25.18
2023-05-06T05:17:16.290Z,25.18
2023-05-06T05:18:16.173Z,25.19
2023-05-06T05:19:16.206Z,25.19
2023-05-06T05:20:16.215Z,25.19
2023-05-06T05:21:16.226Z,25.19
2023-05-06T05:22:16.254Z,25.19
2023-05-06T05:23:16.266Z,25.18
2023-05-06T05:24:16.329Z,25.19
2023-05-06T05:25:16.310Z,25.18
2023-05-06T05:26:16.324Z,25.19
2023-05-06T05:27:16.381Z,25.19
2023-05-06T05:28:16.397Z,25.20
2023-05-06T05:29:16.400Z,25.20
2023-05-06T05:30:16.404Z,25.19
2023-05-06T05:31:16.479Z,25.21
2023-05-06T05:32:16.450Z,25.21
2023-05-06T05:33:16.585Z,25.19
2023-05-06T05:34:16.446Z,25.21
2023-05-06T05:35:16.489Z,25.20
2023-05-06T05:36:16.498Z,25.21
2023-05-06T05:37:16.617Z,25.21
2023-05-06T05:38:16.561Z,25.22
2023-05-06T05:39:16.563Z,25.21
2023-05-06T05:40:16.557Z,25.21
2023-05-06T05:41:17.548Z,25.20
2023-05-06T05:42:16.612Z,25.21
2023-05-06T05:43:16.597Z,25.20
2023-05-06T05:44:16.599Z,25.20
2023-05-06T05:45:16.615Z,25.20
2023-05-06T05:46:16.723Z,25.20
2023-05-06T05:47:16.689Z,25.20
2023-05-06T05:48:16.713Z,25.19
2023-05-06T05:49:16.716Z,25.19
2023-05-06T05:50:16.743Z,25.20
2023-05-06T05:51:16.734Z,25.20
2023-05-06T05:52:16.810Z,25.20
2023-05-06T05:53:16.853Z,25.20
2023-05-06T05:54:16.830Z,25.21
2023-05-06T05:55:16.825Z,25.21
2023-05-06T05:56:16.790Z,25.22
2023-05-06T05:57:16.858Z,25.22
2023-05-06T05:58:16.842Z,25.23
2023-05-06T05:59:16.880Z,25.23
2023-05-06T06:00:16.886Z,25.24
2023-05-06T06:01:16.876Z,25.24
2023-05-06T06:02:16.924Z,25.24
2023-05-06T06:03:16.965Z,25.25
2023-05-06T06:04:16.936Z,25.25
2023-05-06T06:05:16.929Z,25.24
2023-05-06T06:06:16.935Z,25.25
2023-05-06T06:07:16.985Z,25.26
2023-05-06T06:08:16.966Z,25.26
2023-05-06T06:09:17.056Z,25.26
2023-05-06T06:10:17.051Z,25.27
2023-05-06T06:11:17.006Z,25.27
2023-05-06T06:12:17.043Z,25.28
2023-05-06T06:13:17.076Z,25.27
2023-05-06T06:14:17.067Z,25.28
2023-05-06T06:15:17.023Z,25.28
2023-05-06T06:16:17.131Z,25.28
2023-05-06T06:17:17.095Z,25.28
2023-05-06T06:18:17.092Z,25.28
2023-05-06T06:19:17.123Z,25.28
2023-05-06T06:20:17.122Z,25.29
2023-05-06T06:21:17.118Z,25.29
2023-05-06T06:22:17.161Z,25.29
2023-05-06T06:23:17.130Z,25.30
2023-05-06T06:24:17.122Z,25.30
2023-05-06T06:25:17.314Z,25.30
2023-05-06T06:26:17.179Z,25.30
2023-05-06T06:27:17.182Z,25.30
2023-05-06T06:28:17.190Z,25.31
2023-05-06T06:29:17.195Z,25.31
2023-05-06T06:30:17.207Z,25.31
2023-05-06T06:31:17.253Z,25.32
2023-05-06T06:32:17.216Z,25.32
2023-05-06T06:33:17.245Z,25.33
2023-05-06T06:34:17.241Z,25.33
2023-05-06T06:35:17.240Z,25.33
2023-05-06T06:36:17.256Z,25.34
2023-05-06T06:37:17.244Z,25.35
2023-05-06T06:38:17.252Z,25.35
2023-05-06T06:39:17.277Z,25.35
2023-05-06T06:40:17.282Z,25.36
2023-05-06T06:41:17.330Z,25.36
2023-05-06T06:42:17.268Z,25.35
2023-05-06T06:43:17.253Z,25.37
2023-05-06T06:44:17.271Z,25.37
2023-05-06T06:45:17.312Z,25.38
2023-05-06T06:46:17.365Z,25.38
2023-05-06T06:47:17.315Z,25.38
2023-05-06T06:48:17.295Z,25.39
2023-05-06T06:49:17.297Z,25.39
2023-05-06T06:50:17.315Z,25.40
2023-05-06T06:51:17.326Z,25.41
2023-05-06T06:52:17.326Z,25.41
2023-05-06T06:53:17.315Z,25.41
2023-05-06T06:54:17.271Z,25.41
2023-05-06T06:55:17.282Z,25.42
2023-05-06T06:56:17.280Z,25.42
2023-05-06T06:57:17.305Z,25.43
2023-05-06T06:58:17.253Z,25.43
2023-05-06T06:59:17.261Z,25.44
2023-05-06T07:00:17.282Z,25.46
2023-05-06T07:01:17.292Z,25.46
2023-05-06T07:02:17.408Z,25.46
2023-05-06T07:03:17.294Z,25.48
2023-05-06T07:04:17.320Z,25.48
2023-05-06T07:05:17.301Z,25.49
2023-05-06T07:06:17.330Z,25.49
2023-05-06T07:07:17.316Z,25.50
2023-05-06T07:08:17.371Z,25.50
2023-05-06T07:09:17.342Z,25.51
2023-05-06T07:10:17.350Z,25.52
2023-05-06T07:11:17.352Z,25.52
2023-05-06T07:12:17.356Z,25.54
2023-05-06T07:13:17.515Z,25.54
2023-05-06T07:14:17.334Z,25.55
2023-05-06T07:15:17.324Z,25.56
2023-05-06T07:16:17.327Z,25.57
2023-05-06T07:17:17.392Z,25.57
2023-05-06T07:18:17.317Z,25.58
2023-05-06T07:19:17.331Z,25.59
2023-05-06T07:20:17.321Z,25.59
2023-05-06T07:21:17.316Z,25.60
2023-05-06T07:22:17.331Z,25.61
2023-05-06T07:23:17.304Z,25.61
2023-05-06T07:24:17.336Z,25.61
2023-05-06T07:25:17.300Z,25.62
2023-05-06T07:26:17.277Z,25.63
2023-05-06T07:27:17.289Z,25.63
2023-05-06T07:28:17.286Z,25.64
2023-05-06T07:29:17.363Z,25.64
2023-05-06T07:30:17.277Z,25.65
2023-05-06T07:31:17.317Z,25.65
2023-05-06T07:32:17.248Z,25.66
2023-05-06T07:33:17.317Z,25.66
2023-05-06T07:34:17.304Z,25.68
2023-05-06T07:35:17.296Z,25.69
2023-05-06T07:36:17.246Z,25.70
2023-05-06T07:37:17.263Z,25.71
2023-05-06T07:38:17.223Z,25.71
2023-05-06T07:39:17.300Z,25.71
2023-05-06T07:40:17.222Z,25.72
2023-05-06T07:41:17.299Z,25.73
2023-05-06T07:42:17.255Z,25.74
2023-05-06T07:43:17.300Z,25.77
2023-05-06T07:44:17.306Z,25.78
2023-05-06T07:45:17.451Z,25.80
2023-05-06T07:46:17.430Z,25.80
2023-05-06T07:47:17.513Z,25.81
2023-05-06T07:48:19.745Z,25.82
2023-05-06T07:49:17.600Z,25.83
2023-05-06T07:50:17.648Z,25.83
2023-05-06T07:51:17.681Z,25.84
2023-05-06T07:52:17.764Z,25.84
2023-05-06T07:53:17.807Z,25.85
2023-05-06T07:54:17.880Z,25.85
2023-05-06T07:55:17.925Z,25.86
2023-05-06T07:56:17.998Z,25.87
2023-05-06T07:57:18.065Z,25.87
2023-05-06T07:58:18.135Z,25.88
2023-05-06T07:59:18.247Z,25.91
2023-05-06T08:00:18.266Z,25.91
2023-05-06T08:01:18.380Z,25.92
2023-05-06T08:02:18.454Z,25.92
2023-05-06T08:03:18.592Z,25.91
2023-05-06T08:04:18.577Z,25.92
2023-05-06T08:05:18.580Z,25.93
2023-05-06T08:06:18.596Z,25.93
2023-05-06T08:07:18.695Z,25.92
2023-05-06T08:08:18.757Z,25.93
2023-05-06T08:09:23.073Z,25.93
2023-05-06T08:10:18.801Z,25.93
2023-05-06T08:11:19.344Z,25.93
2023-05-06T08:12:18.784Z,25.94
2023-05-06T08:13:18.889Z,25.94
2023-05-06T08:14:18.760Z,25.96
2023-05-06T08:15:18.747Z,25.98
2023-05-06T08:16:18.804Z,26.00
2023-05-06T08:17:18.807Z,26.02
2023-05-06T08:18:22.672Z,26.03
2023-05-06T08:19:18.729Z,26.03
2023-05-06T08:20:18.707Z,26.05
2023-05-06T08:21:18.698Z,26.06
2023-05-06T08:22:18.704Z,26.07
2023-05-06T08:23:18.710Z,26.08
2023-05-06T08:24:18.689Z,26.09
2023-05-06T08:25:18.680Z,26.09
2023-05-06T08:26:18.653Z,26.10
2023-05-06T08:27:18.655Z,26.11
2023-05-06T08:28:18.715Z,26.11
2023-05-06T08:29:18.638Z,26.12
2023-05-06T08:30:18.652Z,26.13
2023-05-06T08:31:18.726Z,26.14
2023-05-06T08:32:18.620Z,26.15
2023-05-06T08:33:18.644Z,26.16
2023-05-06T08:34:18.637Z,26.18
2023-05-06T08:35:18.585Z,26.18
2023-05-06T08:36:18.608Z,26.18
2023-05-06T08:37:18.566Z,26.19
2023-05-06T08:38:18.604Z,26.19
2023-05-06T08:39:18.587Z,26.20
2023-05-06T08:40:18.586Z,26.19
2023-05-06T08:41:18.540Z,26.20
2023-05-06T08:42:18.598Z,26.20
2023-05-06T08:43:18.553Z,26.21
2023-05-06T08:44:18.554Z,26.22
2023-05-06T08:45:18.555Z,26.22
2023-05-06T08:46:18.739Z,26.23
2023-05-06T08:47:18.559Z,26.23
2023-05-06T08:48:18.560Z,26.24
2023-05-06T08:49:18.681Z,26.24
2023-05-06T08:50:18.635Z,26.25
2023-05-06T08:51:18.637Z,26.25
2023-05-06T08:52:18.708Z,26.26
2023-05-06T08:53:18.706Z,26.26
2023-05-06T08:54:18.714Z,26.26
2023-05-06T08:55:18.775Z,26.28
2023-05-06T08:56:18.781Z,26.29
2023-05-06T08:57:18.836Z,26.29
2023-05-06T08:58:18.813Z,26.30
2023-05-06T08:59:18.861Z,26.31
2023-05-06T09:00:18.878Z,26.31
2023-05-06T09:01:18.989Z,26.32
2023-05-06T09:02:18.939Z,26.32
2023-05-06T09:03:19.108Z,26.32
2023-05-06T09:04:18.982Z,26.32
2023-05-06T09:05:18.978Z,26.32
2023-05-06T09:06:18.993Z,26.32
2023-05-06T09:07:19.073Z,26.31
2023-05-06T09:08:19.019Z,26.31
2023-05-06T09:09:19.041Z,26.31
2023-05-06T09:10:19.288Z,26.31
2023-05-06T09:11:19.088Z,26.30
2023-05-06T09:12:19.096Z,26.30
2023-05-06T09:13:19.166Z,26.30
2023-05-06T09:14:19.177Z,26.30
2023-05-06T09:15:19.255Z,26.30
2023-05-06T09:16:19.289Z,26.30
2023-05-06T09:17:19.237Z,26.31
2023-05-06T09:18:19.288Z,26.31
2023-05-06T09:19:19.292Z,26.31
2023-05-06T09:20:19.355Z,26.32
2023-05-06T09:21:19.429Z,26.31
2023-05-06T09:22:19.361Z,26.32
2023-05-06T09:23:19.380Z,26.32
2023-05-06T09:24:19.385Z,26.32
2023-05-06T09:25:19.414Z,26.32
2023-05-06T09:26:19.441Z,26.32
2023-05-06T09:27:19.436Z,26.32
2023-05-06T09:28:19.526Z,26.31
2023-05-06T09:29:19.520Z,26.32
2023-05-06T09:30:19.527Z,26.31
2023-05-06T09:31:19.567Z,26.31
2023-05-06T09:32:19.539Z,26.30
2023-05-06T09:33:19.589Z,26.30
2023-05-06T09:34:19.625Z,26.30
2023-05-06T09:35:19.627Z,26.31
2023-05-06T09:36:19.618Z,26.30
2023-05-06T09:37:19.724Z,26.30
2023-05-06T09:38:19.688Z,26.31
2023-05-06T09:39:19.807Z,26.31
2023-05-06T09:40:19.742Z,26.31
2023-05-06T09:41:19.788Z,26.32
2023-05-06T09:42:19.850Z,26.32
2023-05-06T09:43:19.828Z,26.32
2023-05-06T09:44:19.827Z,26.33
2023-05-06T09:45:19.832Z,26.33
2023-05-06T09:46:19.861Z,26.33
2023-05-06T09:47:19.895Z,26.33
2023-05-06T09:48:19.881Z,26.34
2023-05-06T09:49:19.908Z,26.33
2023-05-06T09:50:19.968Z,26.33
2023-05-06T09:51:19.975Z,26.35
2023-05-06T09:52:20.077Z,26.35
2023-05-06T09:53:20.150Z,26.36
2023-05-06T09:54:20.043Z,26.36
2023-05-06T09:55:20.045Z,26.37
2023-05-06T09:56:20.074Z,26.38
2023-05-06T09:57:20.088Z,26.38
2023-05-06T09:58:20.123Z,26.39
2023-05-06T09:59:20.106Z,26.41
2023-05-06T10:00:20.194Z,26.41
2023-05-06T10:01:32.547Z,26.41
2023-05-06T10:02:21.204Z,26.42
2023-05-06T10:03:20.345Z,26.42
2023-05-06T10:04:20.324Z,26.43
2023-05-06T10:05:20.179Z,26.44
2023-05-06T10:06:20.138Z,26.45
2023-05-06T10:07:20.134Z,26.46
2023-05-06T10:08:20.100Z,26.47
2023-05-06T10:09:20.204Z,26.47
2023-05-06T10:10:20.059Z,26.49
2023-05-06T10:11:20.094Z,26.50
2023-05-06T10:12:20.148Z,26.52
2023-05-06T10:13:20.153Z,26.54
2023-05-06T10:14:20.037Z,26.55
2023-05-06T10:15:20.033Z,26.56
2023-05-06T10:16:20.064Z,26.58
2023-05-06T10:17:20.027Z,26.59
2023-05-06T10:18:20.035Z,26.61
2023-05-06T10:19:20.002Z,26.62
2023-05-06T10:20:19.998Z,26.62
2023-05-06T10:21:20.023Z,26.64
2023-05-06T10:22:20.035Z,26.65
2023-05-06T10:23:19.991Z,26.66
2023-05-06T10:24:19.974Z,26.67
2023-05-06T10:25:20.012Z,26.68
2023-05-06T10:26:19.984Z,26.68
2023-05-06T10:27:19.970Z,26.69
2023-05-06T10:28:25.098Z,26.71
2023-05-06T10:29:20.947Z,26.71
2023-05-06T10:30:19.967Z,26.72
2023-05-06T10:31:20.008Z,26.72
2023-05-06T10:32:19.933Z,26.73
2023-05-06T10:33:19.923Z,26.74
2023-05-06T10:34:19.931Z,26.75
2023-05-06T10:35:19.914Z,26.76
2023-05-06T10:36:19.893Z,26.76
2023-05-06T10:37:19.889Z,26.77
2023-05-06T10:38:19.887Z,26.79
2023-05-06T10:39:19.887Z,26.80
2023-05-06T10:40:19.847Z,26.80
2023-05-06T10:41:20.002Z,26.80
2023-05-06T10:42:19.836Z,26.80
2023-05-06T10:43:19.836Z,26.80
2023-05-06T10:44:19.899Z,26.81
2023-05-06T10:45:19.827Z,26.81
2023-05-06T10:46:19.843Z,26.81
2023-05-06T10:47:19.795Z,26.80
2023-05-06T10:48:19.815Z,26.82
2023-05-06T10:49:19.830Z,26.82
2023-05-06T10:50:19.798Z,26.82
2023-05-06T10:51:19.800Z,26.83
2023-05-06T10:52:19.817Z,26.84
2023-05-06T10:53:19.780Z,26.84
2023-05-06T10:54:19.762Z,26.85
2023-05-06T10:55:19.744Z,26.86
2023-05-06T10:56:19.742Z,26.87
2023-05-06T10:57:19.729Z,26.88
2023-05-06T10:58:19.739Z,26.88
2023-05-06T10:59:19.745Z,26.89
2023-05-06T11:00:19.736Z,26.90
2023-05-06T11:01:19.716Z,26.91
2023-05-06T11:02:19.839Z,26.92
2023-05-06T11:03:19.810Z,26.93
2023-05-06T11:04:19.708Z,26.94
2023-05-06T11:05:19.689Z,26.95
2023-05-06T11:06:19.694Z,26.96
2023-05-06T11:07:19.698Z,26.97
2023-05-06T11:08:19.680Z,27.00
2023-05-06T11:09:19.694Z,27.01
2023-05-06T11:10:19.669Z,27.02
2023-05-06T11:11:19.712Z,27.04
2023-05-06T11:12:19.662Z,27.05
2023-05-06T11:13:19.876Z,27.06
2023-05-06T11:14:19.628Z,27.07
2023-05-06T11:15:19.616Z,27.08
2023-05-06T11:16:19.657Z,27.09
2023-05-06T11:17:19.604Z,27.10
2023-05-06T11:18:19.619Z,27.10
2023-05-06T11:19:19.610Z,27.11
2023-05-06T11:20:19.607Z,27.12
2023-05-06T11:21:19.592Z,27.12
2023-05-06T11:22:19.562Z,27.12
2023-05-06T11:23:19.615Z,27.13
2023-05-06T11:24:19.592Z,27.12
2023-05-06T11:25:19.592Z,27.12
2023-05-06T11:26:19.568Z,27.11
2023-05-06T11:27:19.558Z,27.12
2023-05-06T11:28:19.612Z,27.12
2023-05-06T11:29:19.611Z,27.12
2023-05-06T11:30:19.519Z,27.12
2023-05-06T11:31:19.576Z,27.11
2023-05-06T11:32:19.543Z,27.13
2023-05-06T11:33:19.506Z,27.12
2023-05-06T11:34:19.557Z,27.13
2023-05-06T11:35:19.493Z,27.13
2023-05-06T11:36:19.509Z,27.14
2023-05-06T11:37:19.526Z,27.15
2023-05-06T11:38:19.489Z,27.15
2023-05-06T11:39:19.470Z,27.15
2023-05-06T11:40:19.461Z,27.15
2023-05-06T11:41:19.507Z,27.16
2023-05-06T11:42:19.456Z,27.17
2023-05-06T11:43:19.461Z,27.18
2023-05-06T11:44:19.469Z,27.20
2023-05-06T11:45:19.522Z,27.22
2023-05-06T11:46:19.482Z,27.22
2023-05-06T11:47:19.463Z,27.24
2023-05-06T11:48:19.432Z,27.26
2023-05-06T11:49:19.399Z,27.28
2023-05-06T11:50:19.421Z,27.29
2023-05-06T11:51:19.395Z,27.31
2023-05-06T11:52:19.389Z,27.32
2023-05-06T11:53:19.413Z,27.33
2023-05-06T11:54:19.386Z,27.35
2023-05-06T11:55:19.356Z,27.35
2023-05-06T11:56:19.376Z,27.35
2023-05-06T11:57:19.411Z,27.36
2023-05-06T11:58:19.375Z,27.37
2023-05-06T11:59:19.369Z,27.40
2023-05-06T12:00:19.379Z,27.41
2023-05-06T12:01:19.361Z,27.42
2023-05-06T12:02:19.367Z,27.43
2023-05-06T12:03:19.427Z,27.44
2023-05-06T12:04:19.357Z,27.45
2023-05-06T12:05:19.319Z,27.46
2023-05-06T12:06:19.363Z,27.47
2023-05-06T12:07:19.324Z,27.48
2023-05-06T12:08:26.619Z,27.51
2023-05-06T12:09:20.296Z,27.52
2023-05-06T12:10:19.301Z,27.52
2023-05-06T12:11:19.297Z,27.55
2023-05-06T12:12:19.369Z,27.56
2023-05-06T12:13:19.431Z,27.57
2023-05-06T12:14:19.258Z,27.59
2023-05-06T12:15:19.284Z,27.61
2023-05-06T12:16:19.329Z,27.62
2023-05-06T12:17:19.305Z,27.64
2023-05-06T12:18:19.233Z,27.65
2023-05-06T12:19:19.249Z,27.67
2023-05-06T12:20:19.235Z,27.69
2023-05-06T12:21:19.241Z,27.71
2023-05-06T12:22:19.363Z,27.72
2023-05-06T12:23:19.218Z,27.75
2023-05-06T12:24:19.221Z,27.76
2023-05-06T12:25:19.195Z,27.78
2023-05-06T12:26:19.159Z,27.80
2023-05-06T12:27:19.160Z,27.81
2023-05-06T12:28:19.199Z,27.84
2023-05-06T12:29:19.144Z,27.86
2023-05-06T12:30:19.120Z,27.88
2023-05-06T12:31:19.147Z,27.89
2023-05-06T12:32:19.170Z,27.91
2023-05-06T12:33:19.354Z,27.93
2023-05-06T12:34:19.240Z,27.94
2023-05-06T12:35:19.321Z,27.96
2023-05-06T12:36:19.419Z,27.98
2023-05-06T12:37:19.486Z,27.99
2023-05-06T12:38:19.525Z,28.01
2023-05-06T12:39:19.554Z,28.02
2023-05-06T12:40:19.669Z,28.03
2023-05-06T12:41:19.696Z,28.05
2023-05-06T12:42:19.717Z,28.06
2023-05-06T12:43:19.783Z,28.08
2023-05-06T12:44:19.800Z,28.09
2023-05-06T12:45:19.838Z,28.11
2023-05-06T12:46:19.990Z,28.12
2023-05-06T12:47:19.952Z,28.14
2023-05-06T12:48:20.013Z,28.16
2023-05-06T12:49:20.070Z,28.18
2023-05-06T12:50:20.084Z,28.20
2023-05-06T12:51:20.140Z,28.22
2023-05-06T12:52:20.155Z,28.24